LiveATC.Net - Listen to live air traffic control over the Internet!


ICAO: KPSO  IATA: PSO   Airport: Stevens Field Airport
City: Pagosa Springs   State/Province: Colorado
Country: United States   Continent: North America
KPSO METAR Weather: KPSO 060955Z AUTO 00000KT 10SM CLR 11/11 A3031 RMK AO2 T01080108
KPSO Flight Activity (FlightAware)
KPSO Webcam:  (Airport Webcams) 
KPSO Airport Info   (iFlightPlanner)
KPSO VFR Sectional Chart   (iFlightPlanner) 
KPSO IFR Low Altitude Chart   (iFlightPlanner) 
KPSO IFR High Altitude Chart   (iFlightPlanner) 

KPSO CTAF/Guard
Feed Status: UP   Listeners: 0
Listen in your browser - HTML5 player (in browser, HTML5)
Click here to listen with your own player (launches your MP3 player)
Archive Access: KPSO CTAF/Guard
FacilityFrequency
Emergency/Guard121.500
Pagosa Springs CTAF122.700

NOTICE

Unauthorized use prohibited. See LiveATC.net Terms of Service


Airport/ARTCC Code
Frequency Search
(e.g., 124.400, 128.75)
Site-wide search
 


Browse Feeds
Top 50 Feeds
HF Oceanic Feeds
Coverage Map
Bad Weather Areas

LiveATC FAQ
Offer LiveATC feed
Contact LiveATC.net
Press Inquiries

LiveATC on iPhone
LiveATC on Android

LiveATC Mobile
(Mobile browser)

ATC Audio Archives
Interesting Recordings

LiveATC Forums


Home Page
About LiveATC.net


Terms of Use
Privacy Policy

AIRMETs/SIGMETs

FAA Airport Status
NAS Status
Arrival Demand


Server Software By:
Icecast.org
Liquidsoap